x

Columbia River Bar - 20nm West Of Columbia River Mouth (46029) Wave Buoy

8:50am - Sun 1st Mar 2015 All times are PST. -8 hours from GMT.

  • Sig Wave height 3.6ft
  • Swell Direction
  • Peak Period 8s
  • Average Period 6s
  • Wind
    4mph, 7mph gusts
  • Sea Temp 49°f
  • Air Temp 47°f
  • Sea Pressure 1023.1mb
  • Columbia River Bar - 20nm West Of Columbia River Mouth
  • Columbia River Bar - 20nm West Of Columbia River Mouth

More Historic Weather Station data

Upgrade to MSW Pro to gain access to the past 30 days of data for over 8000 Wavebouys and Weather Stations around the globe.

Join Pro

Comparision Forecast

View Surf forecast
   
Sun 03/01 8:50am 3.5ft 8s 6s 4 7 mph 1023.1mb 49f 47f
7:50am 3.5ft 9s 6s 7
mph
1023mb 49f 47f
6:50am 4ft 9s 6s 7
mph
1023mb 49f 47f
5:50am 4ft 9s 6s 7
mph
1023.2mb 49f 47f
4:50am 4.5ft 9s 7s 4
mph
1023.2mb 49f 47f
3:50am 3.5ft 9s 6s 2 4 mph 1023.4mb 49f 49f
2:50am 4ft 8s 6s 4 7 mph 1023.6mb 50f 48f
1:50am 4.5ft 10s 7s 4 7 mph 1023.9mb 50f 49f
12:50am 4.5ft 9s 6s 9
mph
1023.6mb 50f 50f
Sat 02/28 11:50pm 4.5ft 9s 6s 7 9 mph 1023.7mb 51f 51f
10:50pm 4.5ft 8s 6s 9 11 mph 1023.5mb 51f 51f
9:50pm 5.5ft 10s 6s 11 13 mph 1023.1mb 51f 52f
8:50pm 5ft 9s 6s 16 18 mph 1023mb 51f 52f
7:50pm 5ft 9s 6s 16 18 mph 1022.5mb 51f 52f
6:50pm 5.5ft 10s 6s 18 20 mph 1022.1mb 52f 52f
5:50pm 5.5ft 10s 6s 20 22 mph 1021.6mb 52f 52f
4:50pm 5ft 9s 7s 18 20 mph 1021.2mb 52f 52f
3:50pm 6ft 9s 7s 13 16 mph 1021.2mb 52f 53f
2:50pm 6ft 10s 7s 18 20 mph 1021.2mb 52f 52f
1:50pm 6ft 8s 6s 18 20 mph 1021.1mb 52f 51f
12:50pm 7ft 10s 6s 18 20 mph 1020.9mb 52f 51f
11:50am 7.5ft 10s 7s 13 18 mph 1021mb 52f 50f
10:50am 7.5ft 10s 7s 9 11 mph 1020.7mb 52f 51f
9:50am 9ft 10s 7s 16 20 mph 1019.8mb 52f 49f
8:50am 8ft 9s 7s 20 25 mph 1019.1mb 52f 49f
7:50am 9.5ft 9s 8s 18 20 mph 1018.3mb 52f 49f
6:50am 8ft 10s 7s 20 22 mph 1017.2mb 52f 50f
5:50am 8ft 10s 7s 18 22 mph 1016.3mb 52f 50f
4:50am 8ft 10s 7s 20 22 mph 1015.3mb 53f 51f
3:50am 7ft 10s 7s 22 27 mph 1014.2mb 53f 51f
2:50am 7ft 10s 7s 20 25 mph 1013.6mb 53f 51f
1:50am 8ft 9s 7s 20 25 mph 1013mb 53f 52f
12:50am 7.5ft 10s 6s 20 25 mph 1012.1mb 53f 51f
Fri 02/27 11:50pm 7.5ft 10s 6s 20 25 mph 1011.5mb 53f 51f
10:50pm 7.5ft 10s 7s 20 25 mph 1010.5mb 54f 51f
9:50pm 7ft 10s 6s 22 27 mph 1009.4mb 54f 50f
8:50pm 8ft 10s 7s 22 27 mph 1008.3mb 54f 51f
7:50pm 7ft 9s 6s 20 25 mph 1007.6mb 54f 51f
6:50pm 7.5ft 10s 7s 20 25 mph 1006.9mb 53f 51f
5:50pm 8ft 10s 7s 13 18 mph 1006.7mb 53f 51f
4:50pm 8.5ft 10s 7s 11 13 mph 1006.5mb 54f 51f
3:50pm 8.5ft 9s 7s 4 7 mph 1006.2mb 54f 51f
2:50pm 9ft 8s 7s 2 4 mph 1005.7mb 54f 51f
1:50pm 7.5ft 9s 7s 2 4 mph 1005.7mb 53f 51f
12:50pm 8.5ft 9s 7s 4 7 mph 1006.1mb 53f 51f
11:50am 10ft 9s 7s 2 4 mph 1006.2mb 53f 51f
10:50am 8.5ft 8s 7s 4 7 mph 1006.1mb 53f 49f
9:50am 8ft 7s 7s  -  2 mph 1006.1mb 53f 51f
8:50am 7ft 8s 7s 4 7 mph 1005.9mb 53f 51f
7:50am 7ft 7s 7s 9 11 mph 1005.7mb 53f 50f
6:50am 6.5ft 11s 7s 13 20 mph 1005.8mb 53f 50f
5:50am 6ft 8s 6s 13 16 mph 1006.2mb 53f 49f
4:50am 6ft 7s 6s 16 20 mph 1006.5mb 53f 49f
3:50am 6ft 11s 6s 18 22 mph 1007mb 53f 51f
2:50am 6ft 11s 5s 18 22 mph 1007.8mb 53f 50f
1:50am 6ft 11s 6s 16 20 mph 1008.4mb 53f 49f
12:50am 5.5ft 11s 5s 18 22 mph 1008.6mb 53f 50f
Thu 02/26 11:50pm 5.5ft 11s 5s 18 22 mph 1009.1mb 53f 50f
10:50pm 5ft 11s 5s 20 25 mph 1009.4mb 53f 52f
9:50pm 5.5ft 11s 6s 16 18 mph 1010.3mb 53f 51f
8:50pm 5ft 11s 6s 22 25 mph 1010.8mb 53f 51f
7:50pm 5ft 11s 6s 16 18 mph 1012.2mb 53f 51f
6:50pm 4.5ft 11s 6s 16 18 mph 1013.3mb 53f 51f
5:50pm 4.5ft 11s 7s 11 13 mph 1014.5mb 53f 51f
4:50pm 4.5ft 11s 7s 9 11 mph 1015.6mb 53f 51f
3:50pm 4.5ft 10s 7s 7 9 mph 1016.6mb 53f 51f
2:50pm 4.5ft 11s 7s 9
mph
1017.5mb 53f 51f
1:50pm 4.5ft 12s 7s 4 7 mph 1018.4mb 53f 52f
12:50pm 4.5ft 11s 7s 4
mph
1019.3mb 53f 51f
11:50am 4.5ft 11s 6s 9 11 mph 1020.3mb 53f 52f
10:50am 4.5ft 11s 7s 2 7 mph 1021mb 52f 51f
9:50am 4ft 11s 6s 2
mph
1021mb 52f 51f
8:50am 4ft 11s 6s 7 11 mph 1021.5mb 52f 51f
7:50am 4ft 11s 6s 9 11 mph 1021.6mb 52f 51f
6:50am 4ft 11s 6s 7 9 mph 1021.6mb 53f 51f
5:50am 4.5ft 11s 6s 7
mph
1021.8mb 53f 51f
4:50am 4ft 11s 5s 9 11 mph 1022.3mb 53f 51f
3:50am 4.5ft 11s 5s 16 18 mph 1023mb 52f 51f
2:50am 4.5ft 11s 5s 11 13 mph 1023.5mb 52f 52f
1:50am 4.5ft 11s 5s 13 16 mph 1023.8mb 52f 51f
12:50am 4.5ft 11s 5s 16 20 mph 1024.3mb 52f 51f
Wed 02/25 11:50pm 4.5ft 10s 5s 16 18 mph 1025.2mb 51f 50f
10:50pm 4ft 10s 6s 16 18 mph 1025.9mb 51f 49f
9:50pm 4ft 11s 6s 13 16 mph 1026.4mb 51f 49f
8:50pm 4.5ft 11s 6s 11 13 mph 1026.9mb 51f 49f
7:50pm 5ft 10s 6s 11 16 mph 1027.2mb 51f 49f
6:50pm 5ft 6s 6s 7 9 mph 1027.3mb 51f 51f
5:50pm 5ft 11s 6s 11 13 mph 1028mb 51f 51f